Burkesville, Kentucky
Current Conditions -  °F | °C
As of 3:56 AM on Friday 31 Oct 2014 (Local Time) from KEKQ Reporting Station
Scattered Clouds Scattered Clouds  
Wind Chill: 42°   Ceiling: Unl
Heat Index: 42°   Visibility: 7mi
Dew Point: 41°   Wind: 0mph
Humidity: 97%   Direction: NA
Pressure: 30.01"   Gusts: NA
Location:  36.79°N, 85.37°W
Report Text: KEKQ 310856Z AUTO 00000KT 7SM SCT110 06/05 A3001 RMK AO2 TSNO 58011 T00550050 SLP168
Loading
Personal Weather Stations






























Interactive Weather Map
Tropical Storm Tracking
New forecast layout! Learn more

10-Day Weather Forecast

Advertisements
Track Severe Weather on mobile